createdAt,value
2022-08-01T00:00:24.606Z,83.42675781
2022-08-01T00:01:28.869Z,81.36914063
2022-08-01T00:02:32.794Z,81.00585938
2022-08-01T00:03:28.245Z,81.0859375
2022-08-01T00:04:29.299Z,81.37109375
2022-08-01T00:06:22.376Z,81.859375
2022-08-01T00:07:18.922Z,81.80371094
2022-08-01T00:08:22.051Z,82.09472656
2022-08-01T00:09:23.809Z,82.24316406
2022-08-01T00:09:24.466Z,82.24316406
2022-08-01T00:10:18.240Z,82.01953125
2022-08-01T00:11:13.585Z,81.91796875
2022-08-01T00:12:13.931Z,82.00488281
2022-08-01T00:13:12.061Z,82.04394531
2022-08-01T00:14:10.623Z,82.046875
2022-08-01T00:15:04.907Z,82.32324219
2022-08-01T00:16:16.743Z,82.60449219
2022-08-01T00:17:17.386Z,82.77734375
2022-08-01T00:18:16.291Z,82.7890625
2022-08-01T00:19:11.542Z,83.10058594
2022-08-01T00:21:15.202Z,83.30761719
2022-08-01T00:22:10.608Z,83.41992188
2022-08-01T00:23:13.048Z,83.2734375
2022-08-01T00:24:06.046Z,83.42871094
2022-08-01T00:24:14.334Z,83.42871094
2022-08-01T00:25:04.053Z,83.16699219
2022-08-01T00:26:59.243Z,83.33691406
2022-08-01T00:28:04.119Z,83.14160156
2022-08-01T00:28:57.308Z,83.22753906
2022-08-01T00:30:10.686Z,82.99902344
2022-08-01T00:30:10.687Z,82.99902344
2022-08-01T00:30:11.394Z,82.99902344
2022-08-01T00:32:28.507Z,82.87207031
2022-08-01T00:33:10.093Z,82.56054688
2022-08-01T00:34:14.008Z,82.6875
2022-08-01T00:35:15.752Z,82.54101563
2022-08-01T00:37:19.709Z,83.3046875
2022-08-01T00:38:22.640Z,83.27246094
2022-08-01T00:39:23.679Z,83.32226563
2022-08-01T00:41:25.558Z,83.64160156
2022-08-01T00:42:22.156Z,83.390625
2022-08-01T00:43:31.510Z,83.2421875
2022-08-01T00:44:31.172Z,83.34179688
2022-08-01T00:46:37.444Z,83.47070313
2022-08-01T00:47:34.218Z,83.75292969
2022-08-01T00:48:44.147Z,83.73632813
2022-08-01T00:49:48.217Z,83.84863281
2022-08-01T00:51:53.161Z,83.77636719
2022-08-01T00:52:51.774Z,83.93652344
2022-08-01T00:53:54.081Z,84.25292969
2022-08-01T00:54:50.549Z,83.81933594
2022-08-01T00:55:52.615Z,83.9921875
2022-08-01T00:56:53.249Z,83.97753906
2022-08-01T00:58:01.802Z,84.20410156
2022-08-01T00:58:02.622Z,84.20410156
2022-08-01T00:58:04.686Z,84.20410156
2022-08-01T00:58:52.745Z,84.37890625
2022-08-01T00:59:49.667Z,83.79101563
2022-08-01T01:00:54.883Z,83.82128906
2022-08-01T01:01:50.072Z,84.02539063
2022-08-01T01:02:56.459Z,83.76074219
2022-08-01T01:03:59.104Z,83.90722656
2022-08-01T01:04:57.264Z,83.82714844
2022-08-01T01:05:56.088Z,83.88476563
2022-08-01T01:06:59.581Z,83.81640625
2022-08-01T01:07:55.607Z,83.85644531
2022-08-01T01:09:43.620Z,83.86523438
2022-08-01T01:11:22.520Z,83.45800781
2022-08-01T01:12:23.886Z,83.421875
2022-08-01T01:13:22.421Z,83.4296875
2022-08-01T01:14:22.364Z,83.50292969
2022-08-01T01:16:20.286Z,83.57910156
2022-08-01T01:17:17.498Z,83.71289063
2022-08-01T01:17:41.992Z,83.71289063
2022-08-01T01:17:50.286Z,83.71289063
2022-08-01T01:18:19.735Z,83.78222656
2022-08-01T01:19:17.729Z,83.67480469
2022-08-01T01:20:16.553Z,83.33496094
2022-08-01T01:22:19.139Z,83.69335938
2022-08-01T01:23:17.129Z,83.52246094
2022-08-01T01:24:18.137Z,83.78027344
2022-08-01T01:25:17.395Z,83.75390625
2022-08-01T01:26:19.649Z,83.68164063
2022-08-01T01:27:12.077Z,83.67089844
2022-08-01T01:28:15.020Z,83.76855469
2022-08-01T01:29:09.718Z,83.79101563
2022-08-01T01:30:13.896Z,83.72460938
2022-08-01T01:32:06.826Z,83.97363281
2022-08-01T01:33:07.134Z,84.05078125
2022-08-01T01:34:03.760Z,84.15332031
2022-08-01T01:35:07.618Z,83.70605469
2022-08-01T01:35:59.708Z,83.94921875
2022-08-01T01:37:01.193Z,83.90039063
2022-08-01T01:37:55.147Z,83.96875
2022-08-01T01:38:55.582Z,83.88867188
2022-08-01T01:39:54.103Z,84.03515625
2022-08-01T01:41:50.775Z,83.7421875
2022-08-01T01:42:52.935Z,83.9609375
2022-08-01T01:43:47.609Z,83.96289063
2022-08-01T01:44:49.493Z,83.78808594
2022-08-01T01:45:44.534Z,83.89355469
2022-08-01T01:46:44.383Z,83.83203125
2022-08-01T01:48:21.656Z,83.52539063
2022-08-01T01:50:43.252Z,81.1875
2022-08-01T01:51:29.188Z,80.86816406
2022-08-01T01:52:25.499Z,80.95410156
2022-08-01T01:53:27.345Z,81.23046875
2022-08-01T01:54:22.690Z,81.23046875
2022-08-01T01:55:28.512Z,81.84179688
2022-08-01T01:56:24.757Z,81.94433594
2022-08-01T01:57:23.694Z,82.35546875
2022-08-01T01:58:19.955Z,82.54980469
2022-08-01T01:59:18.848Z,82.71289063
2022-08-01T01:59:25.620Z,82.71289063
2022-08-01T02:00:18.970Z,83.04980469
2022-08-01T02:01:14.853Z,82.92871094
2022-08-01T02:02:11.963Z,82.93359375
2022-08-01T02:03:05.055Z,83.1015625
2022-08-01T02:04:03.440Z,83.09667969
2022-08-01T02:04:56.819Z,82.93359375
2022-08-01T02:06:51.464Z,83.31347656
2022-08-01T02:07:53.458Z,83.33496094
2022-08-01T02:07:59.753Z,83.33496094
2022-08-01T02:08:51.462Z,83.19628906
2022-08-01T02:09:46.001Z,83.16503906
2022-08-01T02:11:59.116Z,83.17285156
2022-08-01T02:12:07.248Z,83.17285156
2022-08-01T02:12:09.371Z,83.17285156
2022-08-01T02:12:45.220Z,83.13867188
2022-08-01T02:13:43.249Z,83.18847656
2022-08-01T02:14:39.413Z,82.97070313
2022-08-01T02:15:37.679Z,83.07226563
2022-08-01T02:16:31.185Z,83.20800781
2022-08-01T02:17:29.919Z,83.13085938
2022-08-01T02:18:27.941Z,83.28515625
2022-08-01T02:19:29.464Z,83.39453125
2022-08-01T02:20:20.897Z,83.50878906
2022-08-01T02:21:21.792Z,83.484375
2022-08-01T02:22:15.662Z,83.84667969
2022-08-01T02:23:15.487Z,83.79785156
2022-08-01T02:24:16.323Z,83.73828125
2022-08-01T02:25:07.515Z,83.58886719
2022-08-01T02:26:10.646Z,83.73730469
2022-08-01T02:27:10.515Z,84.04589844
2022-08-01T02:28:09.807Z,83.88378906
2022-08-01T02:29:10.258Z,83.92480469
2022-08-01T02:30:11.597Z,83.93457031
2022-08-01T02:32:47.756Z,83.76367188
2022-08-01T02:33:33.107Z,83.58300781
2022-08-01T02:34:33.628Z,83.34765625
2022-08-01T02:35:33.113Z,83.27929688
2022-08-01T02:36:34.271Z,83.22851563
2022-08-01T02:37:37.759Z,83.60058594
2022-08-01T02:37:45.231Z,83.60058594
2022-08-01T02:38:37.590Z,83.5546875
2022-08-01T02:39:38.990Z,83.26464844
2022-08-01T02:40:36.183Z,83.19433594
2022-08-01T02:41:33.837Z,83.48925781
2022-08-01T02:42:30.979Z,83.50878906
2022-08-01T02:43:29.608Z,83.48925781
2022-08-01T02:44:27.616Z,83.72753906
2022-08-01T02:45:25.827Z,83.77929688
2022-08-01T02:47:29.605Z,84.15429688
2022-08-01T02:48:27.151Z,83.90136719
2022-08-01T02:49:26.685Z,83.6328125
2022-08-01T02:50:26.551Z,83.57714844
2022-08-01T02:51:27.134Z,83.54492188
2022-08-01T02:52:24.189Z,83.828125
2022-08-01T02:53:21.700Z,83.95117188
2022-08-01T02:54:22.731Z,83.90039063
2022-08-01T02:55:20.604Z,83.95410156
2022-08-01T02:57:18.021Z,84.16503906
2022-08-01T02:58:15.108Z,84.15429688
2022-08-01T02:59:13.722Z,84.27832031
2022-08-01T03:00:10.654Z,84.14257813
2022-08-01T03:02:10.223Z,84.32714844
2022-08-01T03:03:11.693Z,84.29101563
2022-08-01T03:04:15.604Z,84.40136719
2022-08-01T03:05:16.747Z,84.26367188
2022-08-01T03:06:17.508Z,84.46679688
2022-08-01T03:07:16.102Z,84.65625
2022-08-01T03:08:14.703Z,84.53027344
2022-08-01T03:09:11.612Z,84.4375
2022-08-01T03:10:08.290Z,84.5
2022-08-01T03:11:09.504Z,84.43066406
2022-08-01T03:12:05.957Z,84.59082031
2022-08-01T03:13:10.117Z,84.67871094
2022-08-01T03:14:02.745Z,84.83691406
2022-08-01T03:15:05.096Z,84.5859375
2022-08-01T03:17:05.451Z,84.80273438
2022-08-01T03:18:08.097Z,84.79785156
2022-08-01T03:19:00.192Z,84.68164063
2022-08-01T03:20:00.628Z,84.76464844
2022-08-01T03:21:53.416Z,84.8203125
2022-08-01T03:22:52.985Z,84.92285156
2022-08-01T03:23:52.251Z,84.86230469
2022-08-01T03:23:55.281Z,84.86230469
2022-08-01T03:24:50.886Z,84.56933594
2022-08-01T03:25:45.410Z,84.65722656
2022-08-01T03:26:49.650Z,84.65722656
2022-08-01T03:27:54.207Z,84.7109375
2022-08-01T03:28:52.405Z,84.63964844
2022-08-01T03:29:55.922Z,84.7421875
2022-08-01T03:31:52.797Z,84.72265625
2022-08-01T03:32:45.297Z,84.53515625
2022-08-01T03:33:41.847Z,84.50195313
2022-08-01T03:34:48.879Z,84.61523438
2022-08-01T03:36:12.802Z,84.58203125
2022-08-01T03:36:53.575Z,84.60644531
2022-08-01T03:38:14.723Z,84.68261719
2022-08-01T03:38:16.288Z,84.68261719
2022-08-01T03:38:17.219Z,84.68261719
2022-08-01T03:38:52.769Z,84.75585938
2022-08-01T03:39:57.217Z,84.41015625
2022-08-01T03:41:56.227Z,84.14746094
2022-08-01T03:41:57.055Z,84.14746094
2022-08-01T03:42:52.727Z,84.30566406
2022-08-01T03:43:51.112Z,84.43164063
2022-08-01T03:44:53.732Z,84.17089844
2022-08-01T03:46:50.945Z,84.27929688
2022-08-01T03:47:48.039Z,84.24023438
2022-08-01T03:48:50.468Z,84.11132813
2022-08-01T03:49:47.140Z,84.68261719
2022-08-01T03:51:42.449Z,84.359375
2022-08-01T03:52:48.895Z,84.22070313
2022-08-01T03:53:44.440Z,84.265625
2022-08-01T03:54:47.349Z,84.18261719
2022-08-01T03:55:41.505Z,84.22265625
2022-08-01T03:56:44.900Z,84.07324219
2022-08-01T03:57:38.248Z,84.26953125
2022-08-01T03:58:38.265Z,84.37011719
2022-08-01T03:59:37.928Z,84.48632813
2022-08-01T04:00:39.205Z,84.54199219
2022-08-01T04:01:41.001Z,84.25585938
2022-08-01T04:02:37.910Z,84.52734375
2022-08-01T04:03:41.861Z,84.37988281
2022-08-01T04:04:39.025Z,84.79101563
2022-08-01T04:05:39.292Z,84.67089844
2022-08-01T04:06:39.590Z,84.30175781
2022-08-01T04:07:33.953Z,84.27929688
2022-08-01T04:08:33.092Z,84.28125
2022-08-01T04:09:31.141Z,84.07324219
2022-08-01T04:10:32.410Z,84.24511719
2022-08-01T04:11:27.922Z,84.11914063
2022-08-01T04:12:30.490Z,84.50585938
2022-08-01T04:13:26.712Z,84.2890625
2022-08-01T04:13:37.103Z,84.2890625
2022-08-01T04:13:38.311Z,84.2890625
2022-08-01T04:14:30.134Z,84.13378906
2022-08-01T04:15:25.516Z,84.07421875
2022-08-01T04:17:22.018Z,83.79199219
2022-08-01T04:18:26.210Z,84.15722656
2022-08-01T04:19:25.259Z,84.24414063
2022-08-01T04:20:25.209Z,84.16210938
2022-08-01T04:22:29.666Z,84.18164063
2022-08-01T04:23:30.373Z,84.46386719
2022-08-01T04:24:26.834Z,84.79492188
2022-08-01T04:25:26.043Z,84.5625
2022-08-01T04:26:31.152Z,84.69042969
2022-08-01T04:27:50.052Z,84.86914063
2022-08-01T04:27:51.015Z,84.86914063
2022-08-01T04:27:51.047Z,84.86914063
2022-08-01T04:29:22.932Z,84.55859375
2022-08-01T04:30:24.645Z,83.98046875
2022-08-01T04:32:23.051Z,83.98535156
2022-08-01T04:33:19.409Z,84.00292969
2022-08-01T04:34:24.692Z,84.26269531
2022-08-01T04:36:07.709Z,84.01757813
2022-08-01T04:36:51.117Z,83.31933594
2022-08-01T04:37:51.220Z,83.18261719
2022-08-01T04:38:49.116Z,83.27050781
2022-08-01T04:39:50.379Z,83.5078125
2022-08-01T04:40:43.378Z,83.90527344
2022-08-01T04:41:42.949Z,84.10546875
2022-08-01T04:42:42.033Z,84.09277344
2022-08-01T04:43:44.426Z,84.46582031
2022-08-01T04:44:38.824Z,84.49707031
2022-08-01T04:45:37.620Z,84.19824219
2022-08-01T04:47:33.633Z,84.45605469
2022-08-01T04:48:30.625Z,84.12011719
2022-08-01T04:49:29.472Z,84.24414063
2022-08-01T04:50:32.573Z,84.37109375
2022-08-01T04:51:26.349Z,84.62597656
2022-08-01T04:52:30.428Z,84.65625
2022-08-01T04:53:22.690Z,84.7734375
2022-08-01T04:54:22.158Z,84.88671875
2022-08-01T04:55:21.071Z,84.66796875
2022-08-01T04:56:19.220Z,84.81835938
2022-08-01T04:57:19.082Z,84.734375
2022-08-01T04:58:17.942Z,84.86621094
2022-08-01T04:59:19.821Z,84.89257813
2022-08-01T05:00:14.494Z,84.49707031
2022-08-01T05:02:11.004Z,84.79492188
2022-08-01T05:03:12.017Z,84.86035156
2022-08-01T05:04:06.222Z,85.01855469
2022-08-01T05:05:09.341Z,85.02929688
2022-08-01T05:07:06.150Z,85.04296875
2022-08-01T05:07:58.771Z,85.07324219
2022-08-01T05:08:57.730Z,85.11914063
2022-08-01T05:09:53.546Z,85.15332031
2022-08-01T05:10:53.332Z,84.85839844
2022-08-01T05:11:52.445Z,84.98242188
2022-08-01T05:12:50.225Z,85.18945313
2022-08-01T05:13:54.760Z,85.14746094
2022-08-01T05:14:48.562Z,84.95703125
2022-08-01T05:16:46.621Z,84.72851563
2022-08-01T05:18:31.189Z,84.29296875
2022-08-01T05:19:10.883Z,84.1796875
2022-08-01T05:20:08.879Z,84.13867188
2022-08-01T05:22:03.664Z,83.75683594
2022-08-01T05:23:01.788Z,83.94628906
2022-08-01T05:23:58.938Z,83.73535156
2022-08-01T05:25:00.540Z,83.75292969
2022-08-01T05:26:02.041Z,84.04980469
2022-08-01T05:27:00.900Z,84.30761719
2022-08-01T05:27:56.103Z,83.92871094
2022-08-01T05:28:58.646Z,84.10839844
2022-08-01T05:29:57.570Z,84.18847656
2022-08-01T05:30:58.734Z,84.33691406
2022-08-01T05:32:00.541Z,84.5078125
2022-08-01T05:32:59.279Z,84.33300781
2022-08-01T05:34:02.276Z,84.27246094
2022-08-01T05:35:01.487Z,84.56835938
2022-08-01T05:37:00.632Z,84.02636719
2022-08-01T05:37:58.651Z,84.13574219
2022-08-01T05:38:54.961Z,83.96386719
2022-08-01T05:39:54.183Z,84.16992188
2022-08-01T05:41:52.059Z,84.375
2022-08-01T05:42:45.324Z,84.31835938
2022-08-01T05:43:45.428Z,84.64941406
2022-08-01T05:44:49.148Z,84.671875
2022-08-01T05:46:47.283Z,84.16503906
2022-08-01T05:47:42.964Z,84.31347656
2022-08-01T05:48:40.237Z,84.29394531
2022-08-01T05:49:36.551Z,84.4296875
2022-08-01T05:50:34.789Z,84.21289063
2022-08-01T05:52:40.785Z,84.25683594
2022-08-01T05:53:02.335Z,83.8515625
2022-08-01T05:54:02.085Z,83.47949219
2022-08-01T05:55:05.141Z,83.24804688
2022-08-01T05:56:03.482Z,83.02929688
2022-08-01T05:57:06.239Z,83.03417969
2022-08-01T05:58:03.930Z,83.47265625
2022-08-01T05:59:03.322Z,83.76367188
2022-08-01T06:00:01.316Z,83.80566406
2022-08-01T06:01:01.366Z,83.78125
2022-08-01T06:01:56.827Z,83.77636719
2022-08-01T06:02:54.520Z,84.00292969
2022-08-01T06:03:59.162Z,83.79394531
2022-08-01T06:04:52.233Z,83.609375
2022-08-01T06:06:48.868Z,83.51953125
2022-08-01T06:07:48.511Z,83.48535156
2022-08-01T06:08:44.038Z,83.56347656
2022-08-01T06:09:44.070Z,83.80371094
2022-08-01T06:10:38.725Z,83.95214844
2022-08-01T06:11:42.599Z,83.984375
2022-08-01T06:12:38.832Z,84.0625
2022-08-01T06:13:48.274Z,84.39355469
2022-08-01T06:13:48.640Z,84.39355469
2022-08-01T06:13:48.878Z,84.39355469
2022-08-01T06:14:36.064Z,84.29296875
2022-08-01T06:15:34.664Z,84.23242188
2022-08-01T06:17:36.584Z,83.26171875
2022-08-01T06:18:35.924Z,83.47363281
2022-08-01T06:19:37.256Z,83.72167969
2022-08-01T06:20:36.602Z,83.68554688
2022-08-01T06:21:31.173Z,84.02832031
2022-08-01T06:22:33.783Z,84.32226563
2022-08-01T06:23:32.801Z,84.11621094
2022-08-01T06:23:33.007Z,84.11621094
2022-08-01T06:24:29.503Z,84.14257813
2022-08-01T06:25:22.014Z,83.90625
2022-08-01T06:26:23.990Z,84.28027344
2022-08-01T06:27:21.714Z,84.26660156
2022-08-01T06:27:22.536Z,84.26660156
2022-08-01T06:28:16.756Z,84.22460938
2022-08-01T06:29:11.399Z,84.125
2022-08-01T06:30:09.433Z,84.53808594
2022-08-01T06:31:11.841Z,84.45996094
2022-08-01T06:32:04.588Z,84.34375
2022-08-01T06:33:05.269Z,84.29980469
2022-08-01T06:33:59.807Z,84.24121094
2022-08-01T06:34:59.864Z,84.44628906
2022-08-01T06:36:57.771Z,84.10058594
2022-08-01T06:37:50.014Z,84.24609375
2022-08-01T06:38:50.331Z,84.00976563
2022-08-01T06:39:51.265Z,83.89160156
2022-08-01T06:41:42.661Z,83.36035156
2022-08-01T06:42:24.724Z,83.46972656
2022-08-01T06:43:23.950Z,83.33789063
2022-08-01T06:44:23.059Z,83.57617188
2022-08-01T06:45:24.140Z,83.37695313
2022-08-01T06:47:28.663Z,83.84570313
2022-08-01T06:48:22.824Z,83.57910156
2022-08-01T06:49:23.202Z,83.97753906
2022-08-01T06:50:25.400Z,83.79492188
2022-08-01T06:51:19.776Z,84.00195313
2022-08-01T06:52:21.607Z,83.54785156
2022-08-01T06:53:19.674Z,83.59082031
2022-08-01T06:54:23.528Z,83.78515625
2022-08-01T06:55:22.418Z,84.04785156
2022-08-01T06:57:20.252Z,84.1015625
2022-08-01T06:58:20.235Z,84.44433594
2022-08-01T06:58:30.861Z,84.44433594
2022-08-01T06:58:30.872Z,84.44433594
2022-08-01T06:59:22.718Z,84.42285156
2022-08-01T07:00:19.889Z,84.10058594
2022-08-01T07:01:20.815Z,83.98144531
2022-08-01T07:02:18.094Z,83.91601563
2022-08-01T07:03:19.717Z,84.06640625
2022-08-01T07:04:16.219Z,84.03417969
2022-08-01T07:05:20.262Z,84.08105469
2022-08-01T07:07:16.920Z,84.09277344
2022-08-01T07:08:13.649Z,84.09863281
2022-08-01T07:09:15.871Z,84.08007813
2022-08-01T07:10:12.871Z,84.0859375
2022-08-01T07:12:12.553Z,84.01367188
2022-08-01T07:13:15.344Z,84.03515625
2022-08-01T07:14:12.590Z,84.17285156
2022-08-01T07:15:14.454Z,83.82324219
2022-08-01T07:17:12.645Z,83.92675781
2022-08-01T07:18:13.007Z,83.50585938
2022-08-01T07:19:11.356Z,83.19824219
2022-08-01T07:20:16.181Z,83.19140625
2022-08-01T07:21:38.261Z,82.96972656
2022-08-01T07:21:39.376Z,82.96972656
2022-08-01T07:21:39.877Z,82.96972656
2022-08-01T07:22:13.064Z,83.28222656
2022-08-01T07:22:23.541Z,83.28222656
2022-08-01T07:23:13.424Z,82.73144531
2022-08-01T07:24:13.904Z,82.39355469
2022-08-01T07:25:13.371Z,82.6875
2022-08-01T07:26:10.811Z,82.83789063
2022-08-01T07:27:25.388Z,82.81835938
2022-08-01T07:27:25.617Z,82.81835938
2022-08-01T07:27:26.121Z,82.81835938
2022-08-01T07:29:24.783Z,82.296875
2022-08-01T07:29:45.217Z,81.66308594
2022-08-01T07:30:46.525Z,81.01660156
2022-08-01T07:31:43.796Z,80.47167969
2022-08-01T07:32:44.739Z,80.16796875
2022-08-01T07:33:48.472Z,80.23730469
2022-08-01T07:33:48.873Z,80.23730469
2022-08-01T07:34:40.968Z,80.44238281
2022-08-01T07:35:36.753Z,80.71386719
2022-08-01T07:36:37.001Z,80.77148438
2022-08-01T07:37:45.555Z,80.73242188
2022-08-01T07:37:47.899Z,80.73242188
2022-08-01T07:37:48.992Z,80.73242188
2022-08-01T07:38:34.658Z,80.45703125
2022-08-01T07:39:33.028Z,80.30273438
2022-08-01T07:40:31.394Z,80.37597656
2022-08-01T07:41:45.556Z,80.96777344
2022-08-01T07:41:52.990Z,80.96777344
2022-08-01T07:42:05.371Z,80.96777344
2022-08-01T07:42:28.971Z,80.87402344
2022-08-01T07:43:25.238Z,80.90039063
2022-08-01T07:44:29.255Z,81.51464844
2022-08-01T07:45:22.039Z,80.87402344
2022-08-01T07:47:19.218Z,80.60351563
2022-08-01T07:48:20.315Z,80.65429688
2022-08-01T07:49:16.792Z,80.80957031
2022-08-01T07:50:15.547Z,80.734375
2022-08-01T07:51:16.360Z,81.14746094
2022-08-01T07:52:12.596Z,81.18457031
2022-08-01T07:53:16.237Z,80.84570313
2022-08-01T07:54:09.703Z,80.37988281
2022-08-01T07:55:10.652Z,80.40332031
2022-08-01T07:57:07.467Z,80.24902344
2022-08-01T07:58:03.601Z,79.47753906
2022-08-01T07:59:06.570Z,79.16796875
2022-08-01T08:00:00.278Z,79.28320313
2022-08-01T08:01:57.779Z,79.31347656
2022-08-01T08:02:58.518Z,79.62011719
2022-08-01T08:03:54.809Z,79.11816406
2022-08-01T08:04:58.234Z,78.65332031
2022-08-01T08:05:59.639Z,79.11425781
2022-08-01T08:05:59.809Z,79.11425781
2022-08-01T08:07:49.558Z,78.76953125
2022-08-01T08:08:53.251Z,78.85644531
2022-08-01T08:09:50.960Z,79.3125
2022-08-01T08:10:51.271Z,78.88378906
2022-08-01T08:11:47.762Z,78.80859375
2022-08-01T08:12:45.804Z,78.52441406
2022-08-01T08:13:42.221Z,78.66699219
2022-08-01T08:14:46.245Z,78.73046875
2022-08-01T08:15:40.061Z,78.75683594
2022-08-01T08:17:38.196Z,78.27148438
2022-08-01T08:19:17.247Z,77.96191406
2022-08-01T08:20:12.549Z,77.15332031
2022-08-01T08:21:12.562Z,77.43261719
2022-08-01T08:22:52.522Z,76.43945313
2022-08-01T08:25:31.697Z,75.828125
2022-08-01T08:25:52.031Z,75.30273438
2022-08-01T08:27:48.742Z,75.08398438
2022-08-01T08:28:49.056Z,75.47949219
2022-08-01T08:29:44.806Z,75.7265625
2022-08-01T08:30:47.330Z,76.37792969
2022-08-01T08:31:51.962Z,76.33398438
2022-08-01T08:31:52.021Z,76.33398438
2022-08-01T08:32:41.318Z,76.62402344
2022-08-01T08:33:37.016Z,76.56445313
2022-08-01T08:34:37.629Z,75.79882813
2022-08-01T08:35:40.354Z,75.79785156
2022-08-01T08:35:40.495Z,75.79785156
2022-08-01T08:35:54.159Z,75.79785156
2022-08-01T08:36:31.804Z,76.34375
2022-08-01T08:37:31.985Z,75.9453125
2022-08-01T08:37:37.880Z,75.9453125
2022-08-01T08:38:28.475Z,75.66894531
2022-08-01T08:39:27.418Z,75.59960938
2022-08-01T08:40:22.232Z,75.77929688
2022-08-01T08:42:16.772Z,75.56054688
2022-08-01T08:43:15.966Z,75.08789063
2022-08-01T08:44:17.271Z,75.69921875
2022-08-01T08:45:11.832Z,76.20605469
2022-08-01T08:47:04.006Z,76.14648438
2022-08-01T08:48:05.366Z,76.41992188
2022-08-01T08:48:57.876Z,75.90234375
2022-08-01T08:50:00.542Z,76.90527344
2022-08-01T08:50:53.182Z,77.32226563
2022-08-01T08:52:48.396Z,76.46191406
2022-08-01T08:53:47.539Z,76.38085938
2022-08-01T08:54:42.913Z,76.35839844
2022-08-01T08:55:55.380Z,76.6875
2022-08-01T08:55:55.608Z,76.6875
2022-08-01T08:55:56.473Z,76.6875
2022-08-01T08:56:41.148Z,76.99804688
2022-08-01T08:57:36.393Z,75.96679688
2022-08-01T08:58:34.662Z,76.11523438
2022-08-01T08:59:33.486Z,76.28125
2022-08-01T09:00:30.054Z,76.41308594
2022-08-01T09:01:27.552Z,76.3828125
2022-08-01T09:02:28.282Z,76.00390625
2022-08-01T09:03:22.443Z,75.8984375
2022-08-01T09:04:19.992Z,76.17285156
2022-08-01T09:05:21.736Z,76.46289063
2022-08-01T09:06:13.752Z,75.93359375
2022-08-01T09:07:15.394Z,75.69921875
2022-08-01T09:08:07.861Z,75.68652344
2022-08-01T09:09:07.631Z,76.36621094
2022-08-01T09:10:03.068Z,76.75097656
2022-08-01T09:11:57.087Z,75.08789063
2022-08-01T09:11:57.230Z,75.08789063
2022-08-01T09:11:58.229Z,75.08789063
2022-08-01T09:12:27.929Z,76.21582031
2022-08-01T09:13:26.952Z,76.27832031
2022-08-01T09:14:23.435Z,75.68652344
2022-08-01T09:15:23.498Z,75.80175781
2022-08-01T09:16:19.780Z,74.09375
2022-08-01T09:17:22.655Z,75.16113281
2022-08-01T09:18:15.609Z,75.72949219
2022-08-01T09:19:38.804Z,75.82714844
2022-08-01T09:19:39.500Z,75.82714844
2022-08-01T09:19:40.603Z,75.82714844
2022-08-01T09:20:14.615Z,75.6953125
2022-08-01T09:22:10.744Z,75.99414063
2022-08-01T09:23:05.928Z,75.91894531
2022-08-01T09:24:05.727Z,75.50195313
2022-08-01T09:25:00.872Z,75.55664063
2022-08-01T09:26:00.296Z,75.79199219
2022-08-01T09:27:55.086Z,75.54589844
2022-08-01T09:28:50.213Z,75.26953125
2022-08-01T09:30:00.413Z,75.26855469
2022-08-01T09:30:01.954Z,75.26855469
2022-08-01T09:30:50.490Z,75.49316406
2022-08-01T09:31:47.609Z,75.65039063
2022-08-01T09:32:48.938Z,75.55566406
2022-08-01T09:33:42.137Z,74.20996094
2022-08-01T09:34:39.770Z,74.30566406
2022-08-01T09:35:43.140Z,74.48046875
2022-08-01T09:37:37.324Z,74.51660156
2022-08-01T09:38:36.170Z,74.63671875
2022-08-01T09:39:28.689Z,74.24316406
2022-08-01T09:40:07.578Z,72.65136719
2022-08-01T09:41:02.633Z,73.98535156
2022-08-01T09:43:01.400Z,74.09570313
2022-08-01T09:43:56.281Z,74.10839844
2022-08-01T09:45:23.268Z,74.84472656
2022-08-01T09:46:00.973Z,74.79003906
2022-08-01T09:47:59.770Z,73.90332031
2022-08-01T09:48:56.056Z,72.47460938
2022-08-01T09:49:57.317Z,72.95800781
2022-08-01T09:50:53.510Z,72.84277344
2022-08-01T09:51:59.932Z,73.11425781
2022-08-01T09:52:00.860Z,73.11425781
2022-08-01T09:52:52.656Z,73.62988281
2022-08-01T09:53:52.178Z,73.25390625
2022-08-01T09:54:49.630Z,73.51464844
2022-08-01T09:55:45.848Z,73.08789063
2022-08-01T09:56:43.953Z,73.57519531
2022-08-01T09:57:44.789Z,74.05078125
2022-08-01T09:58:40.950Z,73.68261719
2022-08-01T09:59:57.267Z,71.41015625
2022-08-01T09:59:57.968Z,71.41015625
2022-08-01T09:59:58.731Z,71.41015625
2022-08-01T10:00:45.674Z,71.796875
2022-08-01T10:00:46.005Z,71.796875
2022-08-01T10:02:34.869Z,72.28027344
2022-08-01T10:03:35.326Z,72.05664063
2022-08-01T10:04:30.791Z,70.79589844
2022-08-01T10:05:36.841Z,70.88574219
2022-08-01T10:07:43.256Z,70.921875
2022-08-01T10:07:44.105Z,70.921875
2022-08-01T10:07:44.970Z,70.921875
2022-08-01T10:08:27.240Z,70.78320313
2022-08-01T10:09:22.824Z,71.54882813
2022-08-01T10:10:23.469Z,71.11230469
2022-08-01T10:10:29.032Z,71.11230469
2022-08-01T10:12:17.614Z,71.68457031
2022-08-01T10:13:20.611Z,71.91503906
2022-08-01T10:14:14.261Z,71.78515625
2022-08-01T10:15:14.621Z,72.3046875
2022-08-01T10:17:10.657Z,72.12011719
2022-08-01T10:17:18.156Z,72.12011719
2022-08-01T10:18:06.755Z,69.46484375
2022-08-01T10:18:16.830Z,69.46484375
2022-08-01T10:18:26.495Z,69.46484375
2022-08-01T10:19:14.492Z,70.57128906
2022-08-01T10:19:15.562Z,70.57128906
2022-08-01T10:20:13.030Z,69.90722656
2022-08-01T10:20:29.024Z,69.90722656
2022-08-01T10:20:32.762Z,69.90722656
2022-08-01T10:21:10.979Z,70.28222656
2022-08-01T10:23:00.333Z,70.33398438
2022-08-01T10:24:03.118Z,70.36328125
2022-08-01T10:24:56.029Z,69.98242188
2022-08-01T10:25:56.020Z,70.58398438
2022-08-01T10:27:55.156Z,70.81933594
2022-08-01T10:28:49.585Z,71.39941406
2022-08-01T10:29:59.130Z,71.65625
2022-08-01T10:30:04.545Z,71.65625
2022-08-01T10:30:08.518Z,71.65625
2022-08-01T10:30:47.154Z,71.51757813
2022-08-01T10:32:43.889Z,71.59277344
2022-08-01T10:32:50.708Z,71.59277344
2022-08-01T10:33:50.875Z,71.31738281
2022-08-01T10:33:51.898Z,71.31738281
2022-08-01T10:34:45.049Z,70.65429688
2022-08-01T10:35:47.651Z,68.46972656
2022-08-01T10:35:47.943Z,68.46972656
2022-08-01T10:37:35.181Z,69.96679688
2022-08-01T10:38:35.274Z,69.83105469
2022-08-01T10:39:31.010Z,68.93164063
2022-08-01T10:40:31.911Z,68.81347656
2022-08-01T10:43:04.974Z,70.55664063
2022-08-01T10:45:02.905Z,70.03613281
2022-08-01T10:45:22.835Z,69.49902344
2022-08-01T10:46:20.068Z,68.61816406
2022-08-01T10:47:23.281Z,68.62207031
2022-08-01T10:47:27.110Z,68.62207031
2022-08-01T10:48:15.252Z,68.01367188